Time,TemperatureF,DewpointF,PressureIn,WindDirection,WindDirectionDegrees,WindSpeedMPH,WindSpeedGustMPH,Humidity,HourlyPrecipIn,Conditions,Clouds,dailyrainin,SolarRadiationWatts/m^2,SoftwareType,DateUTC
2013-10-19 00:00:00,39.9,37.2,30.11,NNW,331,2.0,2.0,90,0.00,,,0.00,1327,Wunderground v.1.15,2013-10-19 05:00:00,
2013-10-19 00:02:00,39.9,37.2,30.11,NW,311,2.0,3.0,90,0.00,,,0.00,1322,Wunderground v.1.15,2013-10-19 05:02:00,
2013-10-19 00:04:00,39.9,37.2,30.11,NW,307,2.0,3.0,90,0.00,,,0.00,1324,Wunderground v.1.15,2013-10-19 05:04:00,
2013-10-19 00:08:00,39.8,37.1,30.12,NNW,329,2.0,3.0,90,0.00,,,0.00,1324,Wunderground v.1.15,2013-10-19 05:08:00,
2013-10-19 00:10:00,39.8,37.1,30.11,NNW,329,2.0,2.0,90,0.00,,,0.00,1324,Wunderground v.1.15,2013-10-19 05:10:00,
2013-10-19 00:14:00,39.8,37.1,30.11,North,355,2.0,5.0,90,0.00,,,0.00,1324,Wunderground v.1.15,2013-10-19 05:14:00,
2013-10-19 00:16:00,39.8,37.1,30.11,North,355,1.0,5.0,90,0.00,,,0.00,1324,Wunderground v.1.15,2013-10-19 05:16:00,
2013-10-19 00:19:00,39.8,37.1,30.11,NW,309,2.0,5.0,90,0.00,,,0.00,1324,Wunderground v.1.15,2013-10-19 05:19:00,
2013-10-19 00:22:00,39.9,37.2,30.11,NNW,333,2.0,2.0,90,0.00,,,0.00,1324,Wunderground v.1.15,2013-10-19 05:22:00,
2013-10-19 00:30:00,39.9,37.2,30.11,NW,319,2.0,2.0,90,0.00,,,0.00,1325,Wunderground v.1.15,2013-10-19 05:30:00,
2013-10-19 00:36:00,39.8,37.1,30.11,WNW,295,1.0,2.0,90,0.00,,,0.00,1325,Wunderground v.1.15,2013-10-19 05:36:00,
2013-10-19 00:38:00,39.8,37.1,30.11,NW,308,2.0,4.0,90,0.00,,,0.00,1325,Wunderground v.1.15,2013-10-19 05:38:00,
2013-10-19 00:40:00,39.8,37.1,30.11,WNW,290,2.0,2.0,90,0.00,,,0.00,1325,Wunderground v.1.15,2013-10-19 05:40:00,
2013-10-19 00:46:00,39.8,37.1,30.11,North,5,2.0,4.0,90,0.00,,,0.00,1324,Wunderground v.1.15,2013-10-19 05:46:00,
2013-10-19 00:49:00,39.8,37.1,30.11,North,355,3.0,4.0,90,0.00,,,0.00,1325,Wunderground v.1.15,2013-10-19 05:49:00,
2013-10-19 00:50:00,39.7,36.7,30.11,NNW,336,3.0,4.0,89,0.00,,,0.00,1324,Wunderground v.1.15,2013-10-19 05:50:00,
2013-10-19 00:52:00,39.7,36.7,30.11,NW,319,2.0,4.0,89,0.00,,,0.00,1324,Wunderground v.1.15,2013-10-19 05:52:00,
2013-10-19 00:54:00,39.6,36.6,30.11,NNW,346,3.0,4.0,89,0.00,,,0.00,1324,Wunderground v.1.15,2013-10-19 05:54:00,
2013-10-19 00:56:00,39.6,36.6,30.11,NNW,334,3.0,4.0,89,0.00,,,0.00,1324,Wunderground v.1.15,2013-10-19 05:56:00,
2013-10-19 01:00:00,39.5,36.5,30.11,NNW,342,3.0,3.0,89,0.00,,,0.00,1325,Wunderground v.1.15,2013-10-19 06:00:00,
2013-10-19 01:02:00,39.5,36.5,30.11,NNW,344,3.0,6.0,89,0.00,,,0.00,1325,Wunderground v.1.15,2013-10-19 06:02:00,
2013-10-19 01:09:00,39.4,36.4,30.11,NW,323,3.0,6.0,89,0.00,,,0.00,1325,Wunderground v.1.15,2013-10-19 06:09:00,
2013-10-19 01:12:00,39.5,36.5,30.11,North,355,3.0,3.0,89,0.00,,,0.00,1325,Wunderground v.1.15,2013-10-19 06:12:00,
2013-10-19 01:14:00,39.4,36.4,30.11,North,355,2.0,3.0,89,0.00,,,0.00,1325,Wunderground v.1.15,2013-10-19 06:14:00,
2013-10-19 01:16:00,39.5,36.5,30.11,North,10,2.0,3.0,89,0.00,,,0.00,1324,Wunderground v.1.15,2013-10-19 06:16:00,
2013-10-19 01:22:00,39.5,36.5,30.11,North,355,2.0,2.0,89,0.00,,,0.00,1327,Wunderground v.1.15,2013-10-19 06:22:00,
2013-10-19 01:26:00,39.4,36.4,30.11,NNE,13,2.0,4.0,89,0.00,,,0.00,1327,Wunderground v.1.15,2013-10-19 06:26:00,
2013-10-19 01:30:00,39.3,36.3,30.11,North,5,2.0,2.0,89,0.00,,,0.00,1329,Wunderground v.1.15,2013-10-19 06:30:00,
2013-10-19 01:32:00,39.3,36.3,30.11,NNE,26,2.0,2.0,89,0.00,,,0.00,1327,Wunderground v.1.15,2013-10-19 06:32:00,
2013-10-19 01:36:00,39.3,36.3,30.11,NNW,345,2.0,4.0,89,0.00,,,0.00,1327,Wunderground v.1.15,2013-10-19 06:36:00,
2013-10-19 01:41:00,39.1,36.1,30.11,NNE,19,2.0,2.0,89,0.00,,,0.00,1331,Wunderground v.1.15,2013-10-19 06:41:00,
2013-10-19 01:42:00,39.2,36.2,30.11,North,11,2.0,4.0,89,0.00,,,0.00,1329,Wunderground v.1.15,2013-10-19 06:42:00,
2013-10-19 01:44:00,39.1,36.1,30.11,North,9,2.0,4.0,89,0.00,,,0.00,1329,Wunderground v.1.15,2013-10-19 06:44:00,
2013-10-19 01:46:00,39.1,36.1,30.11,North,355,2.0,4.0,89,0.00,,,0.00,1329,Wunderground v.1.15,2013-10-19 06:46:00,
2013-10-19 01:49:00,39.0,36.0,30.11,NNE,15,2.0,4.0,89,0.00,,,0.00,1331,Wunderground v.1.15,2013-10-19 06:49:00,
2013-10-19 01:56:00,39.0,36.0,30.11,NNW,347,3.0,3.0,89,0.00,,,0.00,1332,Wunderground v.1.15,2013-10-19 06:56:00,
2013-10-19 02:02:00,38.9,35.9,30.11,NNE,13,2.0,2.0,89,0.00,,,0.00,1334,Wunderground v.1.15,2013-10-19 07:02:00,
2013-10-19 02:06:00,38.9,35.9,30.10,NNE,13,1.0,2.0,89,0.00,,,0.00,1334,Wunderground v.1.15,2013-10-19 07:06:00,
2013-10-19 02:10:00,38.8,35.8,30.10,NNE,13,1.0,1.0,89,0.00,,,0.00,1336,Wunderground v.1.15,2013-10-19 07:10:00,
2013-10-19 02:12:00,38.8,35.8,30.10,NNE,13,0.0,1.0,89,0.00,,,0.00,1338,Wunderground v.1.15,2013-10-19 07:12:00,
2013-10-19 02:16:00,38.6,35.6,30.10,NNE,13,0.0,1.0,89,0.00,,,0.00,1338,Wunderground v.1.15,2013-10-19 07:16:00,
2013-10-19 02:20:00,38.6,35.6,30.11,NNE,13,1.0,1.0,89,0.00,,,0.00,1339,Wunderground v.1.15,2013-10-19 07:20:00,
2013-10-19 02:22:00,38.5,35.8,30.11,NNE,13,1.0,1.0,90,0.00,,,0.00,1339,Wunderground v.1.15,2013-10-19 07:22:00,
2013-10-19 02:28:00,38.3,35.6,30.11,NNE,13,0.0,1.0,90,0.00,,,0.00,1343,Wunderground v.1.15,2013-10-19 07:28:00,
2013-10-19 02:30:00,38.2,35.5,30.11,NNE,13,0.0,0.0,90,0.00,,,0.00,1343,Wunderground v.1.15,2013-10-19 07:30:00,
2013-10-19 02:32:00,38.2,35.5,30.11,NNE,13,0.0,0.0,90,0.00,,,0.00,1345,Wunderground v.1.15,2013-10-19 07:32:00,
2013-10-19 02:34:00,38.0,35.3,30.11,NNE,13,0.0,0.0,90,0.00,,,0.00,1345,Wunderground v.1.15,2013-10-19 07:34:00,
2013-10-19 02:40:00,37.9,35.2,30.11,NNE,13,0.0,0.0,90,0.00,,,0.00,1345,Wunderground v.1.15,2013-10-19 07:40:00,
2013-10-19 02:42:00,37.8,35.1,30.11,NNE,13,0.0,0.0,90,0.00,,,0.00,1346,Wunderground v.1.15,2013-10-19 07:42:00,
2013-10-19 02:46:00,37.7,35.0,30.11,NNE,13,0.0,0.0,90,0.00,,,0.00,1343,Wunderground v.1.15,2013-10-19 07:46:00,
2013-10-19 02:50:00,37.5,34.8,30.11,NNE,13,0.0,0.0,90,0.00,,,0.00,1345,Wunderground v.1.15,2013-10-19 07:50:00,
2013-10-19 02:52:00,37.5,35.1,30.11,NNE,13,0.0,0.0,91,0.00,,,0.00,1345,Wunderground v.1.15,2013-10-19 07:52:00,
2013-10-19 02:59:00,37.4,35.0,30.11,NNE,13,0.0,0.0,91,0.00,,,0.00,1348,Wunderground v.1.15,2013-10-19 07:59:00,
2013-10-19 03:00:00,37.4,35.0,30.11,NNE,13,0.0,0.0,91,0.00,,,0.00,1346,Wunderground v.1.15,2013-10-19 08:00:00,
2013-10-19 03:02:00,37.4,35.0,30.11,NNE,13,0.0,0.0,91,0.00,,,0.00,1348,Wunderground v.1.15,2013-10-19 08:02:00,
2013-10-19 03:09:00,37.4,35.0,30.11,NNE,13,0.0,0.0,91,0.00,,,0.00,1348,Wunderground v.1.15,2013-10-19 08:09:00,
2013-10-19 03:10:00,37.4,35.0,30.11,NNE,13,0.0,1.0,91,0.00,,,0.00,1346,Wunderground v.1.15,2013-10-19 08:10:00,
2013-10-19 03:12:00,37.4,35.0,30.11,NNE,13,0.0,1.0,91,0.00,,,0.00,1346,Wunderground v.1.15,2013-10-19 08:12:00,
2013-10-19 03:14:00,37.3,34.9,30.11,NNE,13,0.0,1.0,91,0.00,,,0.00,1346,Wunderground v.1.15,2013-10-19 08:14:00,
2013-10-19 03:16:00,37.3,34.9,30.11,NNE,13,0.0,1.0,91,0.00,,,0.00,1346,Wunderground v.1.15,2013-10-19 08:16:00,
2013-10-19 03:20:00,37.2,34.8,30.10,NNE,12,0.0,2.0,91,0.00,,,0.00,1346,Wunderground v.1.15,2013-10-19 08:20:00,
2013-10-19 03:26:00,37.0,34.6,30.11,NNE,12,1.0,2.0,91,0.00,,,0.00,1346,Wunderground v.1.15,2013-10-19 08:26:00,
2013-10-19 03:29:00,36.9,34.5,30.10,NNE,12,1.0,2.0,91,0.00,,,0.00,1348,Wunderground v.1.15,2013-10-19 08:29:00,
2013-10-19 03:32:00,36.8,34.4,30.10,North,360,0.0,0.0,91,0.00,,,0.00,1348,Wunderground v.1.15,2013-10-19 08:32:00,
2013-10-19 03:36:00,36.8,34.4,30.10,NW,324,1.0,1.0,91,0.00,,,0.00,1346,Wunderground v.1.15,2013-10-19 08:36:00,
2013-10-19 03:39:00,36.7,34.6,30.10,NW,323,1.0,1.0,92,0.00,,,0.00,1348,Wunderground v.1.15,2013-10-19 08:39:00,
2013-10-19 03:40:00,36.7,34.6,30.10,NW,324,0.0,0.0,92,0.00,,,0.00,1348,Wunderground v.1.15,2013-10-19 08:40:00,
2013-10-19 03:42:00,36.7,34.6,30.10,NW,324,0.0,0.0,92,0.00,,,0.00,1348,Wunderground v.1.15,2013-10-19 08:42:00,
2013-10-19 03:50:00,36.6,34.2,30.10,NW,315,0.0,0.0,91,0.00,,,0.00,1348,Wunderground v.1.15,2013-10-19 08:50:00,
2013-10-19 03:54:00,36.5,34.1,30.10,NW,316,0.0,0.0,91,0.00,,,0.00,1348,Wunderground v.1.15,2013-10-19 08:54:00,
2013-10-19 03:56:00,36.5,34.1,30.10,NW,315,0.0,0.0,91,0.00,,,0.00,1348,Wunderground v.1.15,2013-10-19 08:56:00,
2013-10-19 04:02:00,36.3,33.9,30.10,NW,316,0.0,0.0,91,0.00,,,0.00,1350,Wunderground v.1.15,2013-10-19 09:02:00,
2013-10-19 04:06:00,36.2,34.1,30.10,NW,315,0.0,0.0,92,0.00,,,0.00,1350,Wunderground v.1.15,2013-10-19 09:06:00,
2013-10-19 04:09:00,36.2,34.1,30.10,NW,315,0.0,0.0,92,0.00,,,0.00,1352,Wunderground v.1.15,2013-10-19 09:09:00,
2013-10-19 04:10:00,36.2,34.1,30.10,NW,315,0.0,0.0,92,0.00,,,0.00,1352,Wunderground v.1.15,2013-10-19 09:10:00,
2013-10-19 04:16:00,36.1,34.0,30.10,NW,316,0.0,0.0,92,0.00,,,0.00,1354,Wunderground v.1.15,2013-10-19 09:16:00,
2013-10-19 04:19:00,36.1,34.0,30.10,NW,315,0.0,0.0,92,0.00,,,0.00,1352,Wunderground v.1.15,2013-10-19 09:19:00,
2013-10-19 04:20:00,36.1,34.0,30.09,NNE,15,0.0,1.0,92,0.00,,,0.00,1354,Wunderground v.1.15,2013-10-19 09:20:00,
2013-10-19 04:22:00,36.1,34.0,30.09,NNE,15,0.0,1.0,92,0.00,,,0.00,1354,Wunderground v.1.15,2013-10-19 09:22:00,
2013-10-19 04:24:00,36.2,34.1,30.09,NNE,15,0.0,1.0,92,0.00,,,0.00,1354,Wunderground v.1.15,2013-10-19 09:24:00,
2013-10-19 04:26:00,36.2,34.1,30.09,NNE,15,0.0,1.0,92,0.00,,,0.00,1355,Wunderground v.1.15,2013-10-19 09:26:00,
2013-10-19 04:30:00,36.1,34.0,30.09,NNE,15,0.0,0.0,92,0.00,,,0.00,1355,Wunderground v.1.15,2013-10-19 09:30:00,
2013-10-19 04:32:00,36.1,33.7,30.09,NNE,14,0.0,0.0,91,0.00,,,0.00,1355,Wunderground v.1.15,2013-10-19 09:32:00,
2013-10-19 04:36:00,36.1,34.0,30.09,NNE,14,0.0,0.0,92,0.00,,,0.00,1355,Wunderground v.1.15,2013-10-19 09:36:00,
2013-10-19 04:40:00,36.1,34.0,30.09,NNE,15,0.0,0.0,92,0.00,,,0.00,1354,Wunderground v.1.15,2013-10-19 09:40:00,
2013-10-19 04:42:00,36.1,34.0,30.09,NNE,14,0.0,0.0,92,0.00,,,0.00,1355,Wunderground v.1.15,2013-10-19 09:42:00,
2013-10-19 04:46:00,36.1,34.0,30.09,NNE,15,0.0,0.0,92,0.00,,,0.00,1354,Wunderground v.1.15,2013-10-19 09:46:00,
2013-10-19 04:49:00,36.1,34.0,30.09,NNE,15,0.0,0.0,92,0.00,,,0.00,1355,Wunderground v.1.15,2013-10-19 09:49:00,
2013-10-19 04:52:00,36.1,34.0,30.09,NNE,15,0.0,0.0,92,0.00,,,0.00,1355,Wunderground v.1.15,2013-10-19 09:52:00,
2013-10-19 04:56:00,36.0,33.9,30.09,NNE,15,0.0,0.0,92,0.00,,,0.00,1355,Wunderground v.1.15,2013-10-19 09:56:00,
2013-10-19 04:58:00,36.0,33.9,30.09,NNE,15,0.0,0.0,92,0.00,,,0.00,1355,Wunderground v.1.15,2013-10-19 09:58:00,
2013-10-19 05:00:00,36.0,33.9,30.09,NNE,15,0.0,0.0,92,0.00,,,0.00,1357,Wunderground v.1.15,2013-10-19 10:00:00,
2013-10-19 05:06:00,35.9,33.8,30.10,NNE,15,0.0,0.0,92,0.00,,,0.00,1357,Wunderground v.1.15,2013-10-19 10:06:00,
2013-10-19 05:08:00,35.9,33.8,30.10,NNE,15,0.0,0.0,92,0.00,,,0.00,1357,Wunderground v.1.15,2013-10-19 10:08:00,
2013-10-19 05:10:00,35.9,33.8,30.10,NNE,14,0.0,2.0,92,0.00,,,0.00,1357,Wunderground v.1.15,2013-10-19 10:10:00,
2013-10-19 05:12:00,35.9,33.8,30.10,NNE,14,0.0,2.0,92,0.00,,,0.00,1357,Wunderground v.1.15,2013-10-19 10:12:00,
2013-10-19 05:14:00,36.0,33.9,30.10,NNE,14,0.0,2.0,92,0.00,,,0.00,1357,Wunderground v.1.15,2013-10-19 10:14:00,
2013-10-19 05:20:00,36.2,34.4,30.10,NNE,15,0.0,0.0,93,0.00,,,0.00,1355,Wunderground v.1.15,2013-10-19 10:20:00,
2013-10-19 05:22:00,36.2,34.4,30.10,NNE,15,0.0,0.0,93,0.00,,,0.00,1348,Wunderground v.1.15,2013-10-19 10:22:00,
2013-10-19 05:28:00,36.1,34.3,30.10,NNE,14,0.0,0.0,93,0.00,,,0.00,1350,Wunderground v.1.15,2013-10-19 10:28:00,
2013-10-19 05:30:00,36.1,34.3,30.10,NNE,14,0.0,0.0,93,0.00,,,0.00,1350,Wunderground v.1.15,2013-10-19 10:30:00,
2013-10-19 05:32:00,36.0,33.9,30.10,NNE,15,0.0,0.0,92,0.00,,,0.00,1350,Wunderground v.1.15,2013-10-19 10:32:00,
2013-10-19 05:34:00,36.0,33.9,30.09,NNE,15,0.0,0.0,92,0.00,,,0.00,1352,Wunderground v.1.15,2013-10-19 10:34:00,
2013-10-19 05:39:00,35.8,33.7,30.10,NNE,14,0.0,0.0,92,0.00,,,0.00,1354,Wunderground v.1.15,2013-10-19 10:39:00,
2013-10-19 05:40:00,35.7,33.6,30.10,NNE,14,0.0,0.0,92,0.00,,,0.00,1354,Wunderground v.1.15,2013-10-19 10:40:00,
2013-10-19 05:42:00,35.7,33.9,30.10,NNE,14,0.0,0.0,93,0.00,,,0.00,1355,Wunderground v.1.15,2013-10-19 10:42:00,
2013-10-19 05:46:00,35.5,33.7,30.10,NNE,15,0.0,0.0,93,0.00,,,0.00,1355,Wunderground v.1.15,2013-10-19 10:46:00,
2013-10-19 05:50:00,35.4,33.3,30.10,NNE,14,0.0,0.0,92,0.00,,,0.00,1355,Wunderground v.1.15,2013-10-19 10:50:00,
2013-10-19 05:52:00,35.4,33.6,30.10,NNE,15,0.0,0.0,93,0.00,,,0.00,1357,Wunderground v.1.15,2013-10-19 10:52:00,
2013-10-19 05:56:00,35.5,33.7,30.10,NNE,15,0.0,0.0,93,0.00,,,0.00,1354,Wunderground v.1.15,2013-10-19 10:56:00,
2013-10-19 05:58:00,35.5,33.7,30.10,NNE,14,0.0,0.0,93,0.00,,,0.00,1352,Wunderground v.1.15,2013-10-19 10:58:00,
2013-10-19 06:02:00,35.5,33.7,30.09,NNE,15,0.0,0.0,93,0.00,,,0.00,1354,Wunderground v.1.15,2013-10-19 11:02:00,
2013-10-19 06:04:00,35.4,33.6,30.09,NNE,15,0.0,0.0,93,0.00,,,0.00,1354,Wunderground v.1.15,2013-10-19 11:04:00,
2013-10-19 06:06:00,35.4,33.6,30.09,NNE,15,0.0,0.0,93,0.00,,,0.00,1354,Wunderground v.1.15,2013-10-19 11:06:00,
2013-10-19 06:08:00,35.3,33.5,30.09,NNE,14,0.0,0.0,93,0.00,,,0.00,1354,Wunderground v.1.15,2013-10-19 11:08:00,
2013-10-19 06:12:00,35.2,33.4,30.09,NNE,15,0.0,0.0,93,0.00,,,0.00,1354,Wunderground v.1.15,2013-10-19 11:12:00,
2013-10-19 06:16:00,35.1,33.3,30.09,NNE,15,0.0,0.0,93,0.00,,,0.00,1354,Wunderground v.1.15,2013-10-19 11:16:00,
2013-10-19 06:19:00,35.1,33.3,30.09,NNE,15,0.0,0.0,93,0.00,,,0.00,1354,Wunderground v.1.15,2013-10-19 11:19:00,
2013-10-19 06:22:00,35.2,33.4,30.09,NNE,14,0.0,0.0,93,0.00,,,0.00,1355,Wunderground v.1.15,2013-10-19 11:22:00,
2013-10-19 06:24:00,35.2,33.4,30.09,NNE,14,0.0,0.0,93,0.00,,,0.00,1355,Wunderground v.1.15,2013-10-19 11:24:00,
2013-10-19 06:26:00,35.1,33.3,30.09,NNE,14,0.0,0.0,93,0.00,,,0.00,1357,Wunderground v.1.15,2013-10-19 11:26:00,
2013-10-19 06:30:00,35.1,33.3,30.09,NNE,14,0.0,0.0,93,0.00,,,0.00,1357,Wunderground v.1.15,2013-10-19 11:30:00,
2013-10-19 06:32:00,35.0,33.2,30.09,NNE,15,0.0,0.0,93,0.00,,,0.00,1359,Wunderground v.1.15,2013-10-19 11:32:00,
2013-10-19 06:36:00,34.9,33.1,30.09,NNE,15,0.0,0.0,93,0.00,,,0.00,1359,Wunderground v.1.15,2013-10-19 11:36:00,
2013-10-19 06:40:00,34.9,33.1,30.09,NNE,14,0.0,0.0,93,0.00,,,0.00,1354,Wunderground v.1.15,2013-10-19 11:40:00,
2013-10-19 06:42:00,34.9,33.1,30.09,NNE,15,0.0,0.0,93,0.00,,,0.00,1350,Wunderground v.1.15,2013-10-19 11:42:00,
2013-10-19 06:46:00,34.9,33.1,30.09,NNE,15,0.0,0.0,93,0.00,,,0.00,1348,Wunderground v.1.15,2013-10-19 11:46:00,
2013-10-19 06:50:00,35.0,33.2,30.09,NNE,15,0.0,0.0,93,0.00,,,0.00,1348,Wunderground v.1.15,2013-10-19 11:50:00,
2013-10-19 06:52:00,34.9,33.1,30.09,NNE,15,0.0,0.0,93,0.00,,,0.00,1346,Wunderground v.1.15,2013-10-19 11:52:00,
2013-10-19 06:54:00,34.9,33.1,30.09,NNE,14,0.0,0.0,93,0.00,,,0.00,1346,Wunderground v.1.15,2013-10-19 11:54:00,
2013-10-19 07:00:00,34.9,33.3,30.09,NNE,14,0.0,0.0,94,0.00,,,0.00,1346,Wunderground v.1.15,2013-10-19 12:00:00,
2013-10-19 07:02:00,34.9,33.3,30.09,NNE,15,0.0,0.0,94,0.00,,,0.00,1346,Wunderground v.1.15,2013-10-19 12:02:00,
2013-10-19 07:06:00,34.8,33.2,30.09,NNE,25,0.0,0.0,94,0.00,,,0.00,1346,Wunderground v.1.15,2013-10-19 12:06:00,
2013-10-19 07:10:00,34.8,33.2,30.09,NNE,26,0.0,0.0,94,0.00,,,0.00,1348,Wunderground v.1.15,2013-10-19 12:10:00,
2013-10-19 07:12:00,34.8,33.2,30.09,NNE,26,0.0,0.0,94,0.00,,,0.00,1346,Wunderground v.1.15,2013-10-19 12:12:00,
2013-10-19 07:14:00,34.8,33.0,30.09,NNE,26,0.0,0.0,93,0.00,,,0.00,1346,Wunderground v.1.15,2013-10-19 12:14:00,
2013-10-19 07:16:00,34.8,33.0,30.09,NNE,26,0.0,0.0,93,0.00,,,0.00,1346,Wunderground v.1.15,2013-10-19 12:16:00,
2013-10-19 07:21:00,34.7,32.9,30.09,NNE,27,0.0,0.0,93,0.00,,,0.00,1348,Wunderground v.1.15,2013-10-19 12:21:00,
2013-10-19 07:22:00,34.6,32.8,30.09,NNE,27,0.0,0.0,93,0.00,,,0.00,1348,Wunderground v.1.15,2013-10-19 12:22:00,
2013-10-19 07:26:00,34.5,33.0,30.09,NNE,27,0.0,0.0,94,0.00,,,0.00,1346,Wunderground v.1.15,2013-10-19 12:26:00,
2013-10-19 07:32:00,34.4,32.9,30.10,NNE,27,0.0,0.0,94,0.00,,,0.01,1346,Wunderground v.1.15,2013-10-19 12:32:00,
2013-10-19 07:36:00,34.4,32.9,30.10,NNE,27,0.0,0.0,94,0.00,,,0.01,1348,Wunderground v.1.15,2013-10-19 12:36:00,
2013-10-19 07:39:00,34.4,32.9,30.10,NNE,27,0.0,0.0,94,0.00,,,0.01,1346,Wunderground v.1.15,2013-10-19 12:39:00,
2013-10-19 07:40:00,34.4,32.9,30.11,NNE,27,0.0,0.0,94,0.00,,,0.01,1348,Wunderground v.1.15,2013-10-19 12:40:00,
2013-10-19 07:44:00,34.4,32.9,30.11,NNE,29,0.0,0.0,94,0.00,,,0.01,1348,Wunderground v.1.15,2013-10-19 12:44:00,
2013-10-19 07:48:00,34.4,32.9,30.11,NNE,29,0.0,0.0,94,0.00,,,0.01,1350,Wunderground v.1.15,2013-10-19 12:48:00,
2013-10-19 07:50:00,34.4,32.9,30.11,NNE,29,0.0,0.0,94,0.00,,,0.01,1348,Wunderground v.1.15,2013-10-19 12:50:00,
2013-10-19 07:52:00,34.4,32.9,30.11,NNE,30,0.0,0.0,94,0.00,,,0.01,1348,Wunderground v.1.15,2013-10-19 12:52:00,
2013-10-19 07:56:00,34.4,32.9,30.11,NNE,30,0.0,0.0,94,0.00,,,0.01,1350,Wunderground v.1.15,2013-10-19 12:56:00,
2013-10-19 07:58:00,34.4,32.9,30.11,NNE,30,0.0,0.0,94,0.00,,,0.01,1350,Wunderground v.1.15,2013-10-19 12:58:00,
2013-10-19 08:00:00,34.4,32.9,30.11,NNE,31,0.0,0.0,94,0.00,,,0.01,1350,Wunderground v.1.15,2013-10-19 13:00:00,
2013-10-19 08:02:00,34.4,32.9,30.11,NNE,31,0.0,0.0,94,0.00,,,0.01,1350,Wunderground v.1.15,2013-10-19 13:02:00,
2013-10-19 08:06:00,34.5,33.0,30.11,NNE,30,0.0,0.0,94,0.00,,,0.01,1348,Wunderground v.1.15,2013-10-19 13:06:00,
2013-10-19 08:10:00,34.6,33.1,30.11,NNE,30,0.0,0.0,94,0.00,,,0.01,1348,Wunderground v.1.15,2013-10-19 13:10:00,
2013-10-19 08:14:00,34.7,33.2,30.11,NNE,30,0.0,0.0,94,0.00,,,0.01,1346,Wunderground v.1.15,2013-10-19 13:14:00,
2013-10-19 08:16:00,34.8,33.2,30.11,NNE,30,0.0,0.0,94,0.00,,,0.01,1346,Wunderground v.1.15,2013-10-19 13:16:00,
2013-10-19 08:22:00,35.1,33.5,30.12,NNE,31,0.0,0.0,94,0.00,,,0.01,1346,Wunderground v.1.15,2013-10-19 13:22:00,
2013-10-19 08:26:00,35.6,34.0,30.12,NNE,31,0.0,0.0,94,0.00,,,0.01,1343,Wunderground v.1.15,2013-10-19 13:26:00,
2013-10-19 08:28:00,36.1,34.8,30.12,NNE,31,0.0,0.0,95,0.00,,,0.01,1339,Wunderground v.1.15,2013-10-19 13:28:00,
2013-10-19 08:30:00,36.3,35.0,30.12,NNE,31,0.0,0.0,95,0.00,,,0.01,1338,Wunderground v.1.15,2013-10-19 13:30:00,
2013-10-19 08:32:00,36.6,35.0,30.12,NNE,31,0.0,0.0,94,0.00,,,0.01,1336,Wunderground v.1.15,2013-10-19 13:32:00,
2013-10-19 08:34:00,36.9,35.6,30.12,NNE,30,0.0,0.0,95,0.00,,,0.01,1334,Wunderground v.1.15,2013-10-19 13:34:00,
2013-10-19 08:36:00,37.2,35.9,30.12,NNE,31,0.0,0.0,95,0.00,,,0.01,1331,Wunderground v.1.15,2013-10-19 13:36:00,
2013-10-19 08:42:00,38.1,36.8,30.12,NNE,30,0.0,0.0,95,0.00,,,0.01,1324,Wunderground v.1.15,2013-10-19 13:42:00,
2013-10-19 08:46:00,38.4,37.1,30.12,NNE,31,0.0,0.0,95,0.00,,,0.01,1320,Wunderground v.1.15,2013-10-19 13:46:00,
2013-10-19 08:50:00,38.6,37.3,30.12,NE,36,0.0,0.0,95,0.00,,,0.01,1317,Wunderground v.1.15,2013-10-19 13:50:00,
2013-10-19 08:52:00,38.7,37.4,30.12,NE,36,0.0,0.0,95,0.00,,,0.01,1315,Wunderground v.1.15,2013-10-19 13:52:00,
2013-10-19 08:56:00,39.0,37.7,30.13,NE,36,0.0,0.0,95,0.00,,,0.01,1313,Wunderground v.1.15,2013-10-19 13:56:00,
2013-10-19 09:00:00,39.3,38.0,30.13,NE,36,0.0,0.0,95,0.00,,,0.01,1310,Wunderground v.1.15,2013-10-19 14:00:00,
2013-10-19 09:02:00,39.6,38.3,30.13,NE,36,0.0,0.0,95,0.00,,,0.01,1308,Wunderground v.1.15,2013-10-19 14:02:00,
2013-10-19 09:06:00,40.0,38.7,30.13,NE,35,0.0,0.0,95,0.00,,,0.01,1306,Wunderground v.1.15,2013-10-19 14:06:00,
2013-10-19 09:10:00,40.3,39.0,30.13,NE,34,0.0,0.0,95,0.00,,,0.01,1304,Wunderground v.1.15,2013-10-19 14:10:00,
2013-10-19 09:12:00,40.4,38.8,30.13,WNW,296,0.0,0.0,94,0.00,,,0.01,1306,Wunderground v.1.15,2013-10-19 14:12:00,
2013-10-19 09:16:00,40.6,39.0,30.13,WNW,295,0.0,0.0,94,0.00,,,0.01,1304,Wunderground v.1.15,2013-10-19 14:16:00,
2013-10-19 09:19:00,40.8,38.9,30.13,WNW,295,0.0,0.0,93,0.00,,,0.01,1304,Wunderground v.1.15,2013-10-19 14:19:00,
2013-10-19 09:22:00,41.1,39.2,30.13,WNW,295,0.0,0.0,93,0.00,,,0.01,1304,Wunderground v.1.15,2013-10-19 14:22:00,
2013-10-19 09:29:00,42.1,39.7,30.13,SSW,210,0.0,0.0,91,0.00,,,0.01,1303,Wunderground v.1.15,2013-10-19 14:29:00,
2013-10-19 09:30:00,42.2,39.8,30.13,SSW,207,0.0,0.0,91,0.00,,,0.01,1303,Wunderground v.1.15,2013-10-19 14:30:00,
2013-10-19 09:32:00,42.4,39.7,30.13,SSW,207,0.0,0.0,90,0.00,,,0.01,1303,Wunderground v.1.15,2013-10-19 14:32:00,
2013-10-19 09:34:00,42.6,39.6,30.13,SSW,204,0.0,0.0,89,0.00,,,0.01,1301,Wunderground v.1.15,2013-10-19 14:34:00,
2013-10-19 09:38:00,43.3,40.0,30.13,SSW,203,0.0,0.0,88,0.00,,,0.01,1299,Wunderground v.1.15,2013-10-19 14:38:00,
2013-10-19 09:40:00,43.4,39.8,30.13,SSW,204,0.0,0.0,87,0.00,,,0.01,1299,Wunderground v.1.15,2013-10-19 14:40:00,
2013-10-19 09:42:00,43.6,39.4,30.13,SSE,161,0.0,0.0,85,0.00,,,0.01,1299,Wunderground v.1.15,2013-10-19 14:42:00,
2013-10-19 09:44:00,43.8,39.6,30.13,SSE,161,0.0,0.0,85,0.00,,,0.01,1301,Wunderground v.1.15,2013-10-19 14:44:00,
2013-10-19 09:46:00,44.0,39.8,30.13,SSE,161,0.0,0.0,85,0.00,,,0.01,1303,Wunderground v.1.15,2013-10-19 14:46:00,
2013-10-19 09:50:00,44.5,39.7,30.13,SSE,161,0.0,0.0,83,0.00,,,0.01,1306,Wunderground v.1.15,2013-10-19 14:50:00,
2013-10-19 09:52:00,44.9,40.0,30.13,SSE,160,0.0,0.0,83,0.00,,,0.01,1308,Wunderground v.1.15,2013-10-19 14:52:00,
2013-10-19 09:54:00,45.1,39.9,30.13,SSE,161,0.0,0.0,82,0.00,,,0.01,1310,Wunderground v.1.15,2013-10-19 14:54:00,
2013-10-19 09:56:00,45.3,39.8,30.13,SSE,162,0.0,0.0,81,0.00,,,0.01,1311,Wunderground v.1.15,2013-10-19 14:56:00,
2013-10-19 10:00:00,45.0,38.9,30.13,WSW,242,1.0,1.0,79,0.00,,,0.01,1317,Wunderground v.1.15,2013-10-19 15:00:00,
2013-10-19 10:02:00,45.1,39.3,30.13,WSW,242,1.0,1.0,80,0.00,,,0.01,1318,Wunderground v.1.15,2013-10-19 15:02:00,
2013-10-19 10:06:00,45.5,39.4,30.13,SW,229,1.0,1.0,79,0.00,,,0.01,1318,Wunderground v.1.15,2013-10-19 15:06:00,
2013-10-19 10:09:00,45.4,38.9,30.13,West,269,1.0,2.0,78,0.00,,,0.01,1320,Wunderground v.1.15,2013-10-19 15:09:00,
2013-10-19 10:12:00,45.0,38.6,30.13,West,273,1.0,4.0,78,0.00,,,0.01,1324,Wunderground v.1.15,2013-10-19 15:12:00,
2013-10-19 10:16:00,45.2,39.4,30.12,West,281,1.0,4.0,80,0.00,,,0.01,1327,Wunderground v.1.15,2013-10-19 15:16:00,
2013-10-19 10:18:00,45.1,38.6,30.12,West,277,1.0,4.0,78,0.00,,,0.01,1331,Wunderground v.1.15,2013-10-19 15:18:00,
2013-10-19 10:20:00,45.1,39.0,30.12,West,277,1.0,3.0,79,0.00,,,0.01,1332,Wunderground v.1.15,2013-10-19 15:20:00,
2013-10-19 10:22:00,45.2,39.1,30.12,West,275,1.0,3.0,79,0.00,,,0.01,1334,Wunderground v.1.15,2013-10-19 15:22:00,
2013-10-19 10:24:00,45.3,39.2,30.12,West,275,1.0,3.0,79,0.00,,,0.01,1334,Wunderground v.1.15,2013-10-19 15:24:00,
2013-10-19 10:26:00,45.6,39.1,30.12,West,275,1.0,3.0,78,0.00,,,0.01,1332,Wunderground v.1.15,2013-10-19 15:26:00,
2013-10-19 10:30:00,45.9,39.4,30.12,West,276,1.0,1.0,78,0.00,,,0.01,1332,Wunderground v.1.15,2013-10-19 15:30:00,
2013-10-19 10:36:00,46.4,39.6,30.12,West,281,1.0,1.0,77,0.00,,,0.01,1332,Wunderground v.1.15,2013-10-19 15:36:00,
2013-10-19 10:39:00,47.0,40.2,30.12,West,281,1.0,1.0,77,0.00,,,0.01,1331,Wunderground v.1.15,2013-10-19 15:39:00,
2013-10-19 10:40:00,47.2,40.4,30.11,West,280,0.0,0.0,77,0.00,,,0.01,1331,Wunderground v.1.15,2013-10-19 15:40:00,
2013-10-19 10:46:00,47.8,39.9,30.11,West,280,1.0,1.0,74,0.00,,,0.01,1329,Wunderground v.1.15,2013-10-19 15:46:00,
2013-10-19 10:50:00,47.7,39.8,30.11,WNW,282,1.0,3.0,74,0.00,,,0.01,1331,Wunderground v.1.15,2013-10-19 15:50:00,
2013-10-19 10:52:00,47.6,39.7,30.11,West,281,1.0,3.0,74,0.00,,,0.01,1329,Wunderground v.1.15,2013-10-19 15:52:00,
2013-10-19 10:56:00,48.0,40.8,30.11,West,263,1.0,3.0,76,0.00,,,0.01,1327,Wunderground v.1.15,2013-10-19 15:56:00,
2013-10-19 10:59:00,48.6,40.7,30.11,West,275,1.0,3.0,74,0.00,,,0.01,1327,Wunderground v.1.15,2013-10-19 15:59:00,
2013-10-19 11:00:00,48.9,41.0,30.11,West,275,1.0,1.0,74,0.00,,,0.01,1327,Wunderground v.1.15,2013-10-19 16:00:00,
2013-10-19 11:02:00,49.2,41.3,30.11,West,275,0.0,1.0,74,0.00,,,0.01,1327,Wunderground v.1.15,2013-10-19 16:02:00,
2013-10-19 11:06:00,50.0,41.7,30.11,SW,232,0.0,1.0,73,0.00,,,0.01,1324,Wunderground v.1.15,2013-10-19 16:06:00,
2013-10-19 11:10:00,50.9,41.8,30.11,SW,232,0.0,0.0,71,0.00,,,0.01,1324,Wunderground v.1.15,2013-10-19 16:10:00,
2013-10-19 11:12:00,51.2,41.7,30.11,SW,232,0.0,0.0,70,0.00,,,0.01,1324,Wunderground v.1.15,2013-10-19 16:12:00,
2013-10-19 11:14:00,51.3,41.8,30.11,SW,232,0.0,0.0,70,0.00,,,0.01,1311,Wunderground v.1.15,2013-10-19 16:14:00,
2013-10-19 11:16:00,51.6,41.8,30.11,SW,232,0.0,1.0,69,0.00,,,0.01,1311,Wunderground v.1.15,2013-10-19 16:16:00,
2013-10-19 11:22:00,51.7,41.5,30.11,SW,232,0.0,0.0,68,0.00,,,0.01,1311,Wunderground v.1.15,2013-10-19 16:22:00,
2013-10-19 11:29:00,52.4,41.8,30.11,SW,232,0.0,0.0,67,0.00,,,0.01,1320,Wunderground v.1.15,2013-10-19 16:29:00,
2013-10-19 11:30:00,52.6,41.9,30.11,SW,225,0.0,0.0,67,0.00,,,0.01,1322,Wunderground v.1.15,2013-10-19 16:30:00,
2013-10-19 11:32:00,52.9,41.8,30.11,SW,225,0.0,0.0,66,0.00,,,0.01,1322,Wunderground v.1.15,2013-10-19 16:32:00,
2013-10-19 11:36:00,53.5,42.8,30.11,SW,225,0.0,0.0,67,0.00,,,0.01,1308,Wunderground v.1.15,2013-10-19 16:36:00,
2013-10-19 11:42:00,54.5,43.0,30.11,SW,219,0.0,2.0,65,0.00,,,0.01,1311,Wunderground v.1.15,2013-10-19 16:42:00,
2013-10-19 11:46:00,54.7,41.9,30.10,WNW,298,1.0,2.0,62,0.00,,,0.01,1317,Wunderground v.1.15,2013-10-19 16:46:00,
2013-10-19 11:50:00,54.7,41.9,30.10,WNW,298,1.0,1.0,62,0.00,,,0.01,1322,Wunderground v.1.15,2013-10-19 16:50:00,
2013-10-19 11:52:00,54.8,42.0,30.10,WNW,298,0.0,1.0,62,0.00,,,0.01,1324,Wunderground v.1.15,2013-10-19 16:52:00,
2013-10-19 11:56:00,54.8,42.4,30.10,WNW,294,1.0,1.0,63,0.00,,,0.01,1308,Wunderground v.1.15,2013-10-19 16:56:00,
2013-10-19 11:58:00,54.8,42.4,30.10,SSE,159,1.0,1.0,63,0.00,,,0.01,1310,Wunderground v.1.15,2013-10-19 16:58:00,
2013-10-19 12:00:00,54.7,42.3,30.10,West,277,1.0,4.0,63,0.00,,,0.01,1315,Wunderground v.1.15,2013-10-19 17:00:00,
2013-10-19 12:02:00,54.4,42.1,30.10,West,276,1.0,4.0,63,0.00,,,0.01,1318,Wunderground v.1.15,2013-10-19 17:02:00,
2013-10-19 12:04:00,54.2,41.9,30.10,West,276,1.0,4.0,63,0.00,,,0.01,1324,Wunderground v.1.15,2013-10-19 17:04:00,
2013-10-19 12:06:00,54.0,41.7,30.10,West,277,2.0,4.0,63,0.00,,,0.01,1331,Wunderground v.1.15,2013-10-19 17:06:00,
2013-10-19 12:10:00,54.1,42.2,30.10,WSW,253,1.0,1.0,64,0.00,,,0.01,1341,Wunderground v.1.15,2013-10-19 17:10:00,
2013-10-19 12:16:00,55.3,42.9,30.09,South,188,0.0,2.0,63,0.00,,,0.01,1346,Wunderground v.1.15,2013-10-19 17:16:00,
2013-10-19 12:19:00,55.7,42.9,30.09,NW,304,0.0,2.0,62,0.00,,,0.01,1350,Wunderground v.1.15,2013-10-19 17:19:00,
2013-10-19 12:20:00,55.8,42.5,30.09,NW,304,1.0,1.0,61,0.00,,,0.01,1352,Wunderground v.1.15,2013-10-19 17:20:00,
2013-10-19 12:22:00,55.9,42.6,30.09,WSW,246,1.0,3.0,61,0.00,,,0.01,1355,Wunderground v.1.15,2013-10-19 17:22:00,
2013-10-19 12:26:00,56.1,42.8,30.09,WSW,253,1.0,3.0,61,0.00,,,0.01,1348,Wunderground v.1.15,2013-10-19 17:26:00,
2013-10-19 12:28:00,56.4,43.5,30.09,SW,236,1.0,3.0,62,0.00,,,0.01,1352,Wunderground v.1.15,2013-10-19 17:28:00,
2013-10-19 12:30:00,56.6,43.3,30.09,SW,232,1.0,1.0,61,0.00,,,0.01,1354,Wunderground v.1.15,2013-10-19 17:30:00,
2013-10-19 12:34:00,57.1,43.3,30.09,SW,233,0.0,1.0,60,0.00,,,0.01,1357,Wunderground v.1.15,2013-10-19 17:34:00,
2013-10-19 12:36:00,57.2,43.0,30.09,SW,232,0.0,1.0,59,0.00,,,0.01,1373,Wunderground v.1.15,2013-10-19 17:36:00,
2013-10-19 12:40:00,57.1,42.5,30.09,SW,236,1.0,1.0,58,0.00,,,0.01,1371,Wunderground v.1.15,2013-10-19 17:40:00,
2013-10-19 12:42:00,57.1,42.5,30.09,SW,236,1.0,1.0,58,0.00,,,0.01,1368,Wunderground v.1.15,2013-10-19 17:42:00,
2013-10-19 12:46:00,57.1,42.9,30.08,WSW,238,1.0,1.0,59,0.00,,,0.01,1364,Wunderground v.1.15,2013-10-19 17:46:00,
2013-10-19 12:50:00,57.6,42.9,30.08,SW,230,0.0,2.0,58,0.00,,,0.01,1369,Wunderground v.1.15,2013-10-19 17:50:00,
2013-10-19 12:52:00,57.8,42.7,30.09,SSE,153,1.0,2.0,57,0.00,,,0.01,1375,Wunderground v.1.15,2013-10-19 17:52:00,
2013-10-19 12:56:00,58.4,42.3,30.09,SSE,161,0.0,2.0,55,0.00,,,0.01,1383,Wunderground v.1.15,2013-10-19 17:56:00,
2013-10-19 13:00:00,58.6,42.0,30.08,SSE,157,1.0,1.0,54,0.00,,,0.01,1380,Wunderground v.1.15,2013-10-19 18:00:00,
2013-10-19 13:04:00,59.0,42.4,30.08,SSE,157,0.0,1.0,54,0.00,,,0.01,1401,Wunderground v.1.15,2013-10-19 18:04:00,
2013-10-19 13:10:00,59.8,41.1,30.08,NW,311,0.0,2.0,50,0.00,,,0.01,1413,Wunderground v.1.15,2013-10-19 18:10:00,
2013-10-19 13:12:00,59.8,40.6,30.08,NW,307,0.0,6.0,49,0.00,,,0.01,1419,Wunderground v.1.15,2013-10-19 18:12:00,
2013-10-19 13:16:00,59.0,38.8,30.08,WNW,297,2.0,6.0,47,0.00,,,0.01,1427,Wunderground v.1.15,2013-10-19 18:16:00,
2013-10-19 13:19:00,58.6,39.5,30.08,WNW,297,2.0,6.0,49,0.00,,,0.01,1431,Wunderground v.1.15,2013-10-19 18:19:00,
2013-10-19 13:20:00,58.5,38.9,30.08,WNW,297,2.0,2.0,48,0.00,,,0.01,1433,Wunderground v.1.15,2013-10-19 18:20:00,
2013-10-19 13:22:00,58.3,38.7,30.07,WNW,298,2.0,2.0,48,0.00,,,0.01,1436,Wunderground v.1.15,2013-10-19 18:22:00,
2013-10-19 13:24:00,58.3,39.7,30.07,WNW,296,1.0,2.0,50,0.00,,,0.01,1440,Wunderground v.1.15,2013-10-19 18:24:00,
2013-10-19 13:26:00,58.2,39.1,30.07,WNW,296,1.0,2.0,49,0.00,,,0.01,1441,Wunderground v.1.15,2013-10-19 18:26:00,
2013-10-19 13:29:00,58.4,39.3,30.07,WSW,253,1.0,4.0,49,0.00,,,0.01,1448,Wunderground v.1.15,2013-10-19 18:29:00,
2013-10-19 13:30:00,58.5,38.9,30.07,WSW,254,1.0,1.0,48,0.00,,,0.01,1450,Wunderground v.1.15,2013-10-19 18:30:00,
2013-10-19 13:34:00,58.7,39.0,30.07,SW,229,1.0,1.0,48,0.00,,,0.01,1457,Wunderground v.1.15,2013-10-19 18:34:00,
2013-10-19 13:40:00,59.2,39.5,30.06,SSW,209,1.0,1.0,48,0.00,,,0.01,1468,Wunderground v.1.15,2013-10-19 18:40:00,
2013-10-19 13:46:00,59.7,38.9,30.05,SW,227,1.0,1.0,46,0.00,,,0.01,1480,Wunderground v.1.15,2013-10-19 18:46:00,
2013-10-19 13:49:00,59.6,38.8,30.05,SW,232,0.0,1.0,46,0.00,,,0.01,1487,Wunderground v.1.15,2013-10-19 18:49:00,
2013-10-19 13:50:00,59.6,39.3,30.05,SW,232,0.0,0.0,47,0.00,,,0.01,1489,Wunderground v.1.15,2013-10-19 18:50:00,
2013-10-19 13:52:00,59.6,39.3,30.05,SW,233,1.0,1.0,47,0.00,,,0.01,,Wunderground v.1.15,2013-10-19 18:52:00,
2013-10-19 14:00:00,59.7,38.3,30.05,West,276,1.0,1.0,45,0.00,,,0.01,,Wunderground v.1.15,2013-10-19 19:00:00,
2013-10-19 14:02:00,59.8,38.4,30.05,West,276,0.0,1.0,45,0.00,,,0.01,,Wunderground v.1.15,2013-10-19 19:02:00,
2013-10-19 14:06:00,59.6,38.8,30.05,West,276,1.0,1.0,46,0.00,,,0.01,,Wunderground v.1.15,2013-10-19 19:06:00,
2013-10-19 14:09:00,59.6,38.8,30.05,West,276,1.0,1.0,46,0.00,,,0.01,,Wunderground v.1.15,2013-10-19 19:09:00,
2013-10-19 14:12:00,59.5,38.7,30.04,West,273,1.0,1.0,46,0.00,,,0.01,,Wunderground v.1.15,2013-10-19 19:12:00,
2013-10-19 14:16:00,59.3,37.9,30.04,SSE,164,1.0,3.0,45,0.00,,,0.01,,Wunderground v.1.15,2013-10-19 19:16:00,
2013-10-19 14:19:00,59.3,37.9,30.04,West,274,1.0,3.0,45,0.00,,,0.01,,Wunderground v.1.15,2013-10-19 19:19:00,
2013-10-19 14:22:00,59.2,38.4,30.03,SSE,165,1.0,6.0,46,0.00,,,0.01,,Wunderground v.1.15,2013-10-19 19:22:00,
2013-10-19 14:24:00,59.3,38.5,30.04,WNW,296,1.0,6.0,46,0.00,,,0.01,,Wunderground v.1.15,2013-10-19 19:24:00,
2013-10-19 14:26:00,59.4,39.1,30.03,WNW,294,1.0,6.0,47,0.00,,,0.01,,Wunderground v.1.15,2013-10-19 19:26:00,
2013-10-19 14:29:00,59.5,37.6,30.03,WNW,294,1.0,6.0,44,0.00,,,0.01,,Wunderground v.1.15,2013-10-19 19:29:00,
2013-10-19 14:32:00,59.6,37.1,30.03,West,263,1.0,7.0,43,0.00,,,0.01,,Wunderground v.1.15,2013-10-19 19:32:00,
2013-10-19 14:34:00,59.6,37.6,30.03,West,267,1.0,7.0,44,0.00,,,0.01,,Wunderground v.1.15,2013-10-19 19:34:00,
2013-10-19 14:40:00,59.6,37.1,30.03,NW,318,2.0,4.0,43,0.00,,,0.01,,Wunderground v.1.15,2013-10-19 19:40:00,
2013-10-19 14:42:00,59.6,37.6,30.03,WNW,294,2.0,4.0,44,0.00,,,0.01,,Wunderground v.1.15,2013-10-19 19:42:00,
2013-10-19 14:44:00,59.6,38.2,30.03,WNW,299,2.0,4.0,45,0.00,,,0.01,,Wunderground v.1.15,2013-10-19 19:44:00,
2013-10-19 14:50:00,59.8,37.8,30.03,WNW,299,1.0,4.0,44,0.00,,,0.01,,Wunderground v.1.15,2013-10-19 19:50:00,
2013-10-19 14:54:00,59.8,37.2,30.03,WNW,299,0.0,4.0,43,0.00,,,0.01,,Wunderground v.1.15,2013-10-19 19:54:00,
2013-10-19 14:56:00,59.9,37.3,30.03,WNW,299,0.0,4.0,43,0.00,,,0.01,,Wunderground v.1.15,2013-10-19 19:56:00,
2013-10-19 14:59:00,60.0,38.0,30.03,WNW,299,0.0,4.0,44,0.00,,,0.01,,Wunderground v.1.15,2013-10-19 19:59:00,
2013-10-19 15:02:00,60.2,38.2,30.02,WNW,299,1.0,1.0,44,0.00,,,0.01,,Wunderground v.1.15,2013-10-19 20:02:00,
2013-10-19 15:04:00,60.2,38.2,30.02,WNW,299,1.0,2.0,44,0.00,,,0.01,,Wunderground v.1.15,2013-10-19 20:04:00,
2013-10-19 15:06:00,60.2,38.2,30.02,WNW,299,1.0,2.0,44,0.00,,,0.01,,Wunderground v.1.15,2013-10-19 20:06:00,
2013-10-19 15:10:00,60.2,38.8,30.02,WNW,299,1.0,2.0,45,0.00,,,0.01,,Wunderground v.1.15,2013-10-19 20:10:00,
2013-10-19 15:12:00,60.3,38.3,30.02,WNW,292,1.0,2.0,44,0.00,,,0.01,,Wunderground v.1.15,2013-10-19 20:12:00,
2013-10-19 15:14:00,60.3,38.3,30.02,WNW,290,1.0,2.0,44,0.00,,,0.01,,Wunderground v.1.15,2013-10-19 20:14:00,
2013-10-19 15:19:00,60.5,37.9,30.02,West,279,1.0,2.0,43,0.00,,,0.01,,Wunderground v.1.15,2013-10-19 20:19:00,
2013-10-19 15:20:00,60.6,37.4,30.02,West,279,1.0,1.0,42,0.00,,,0.01,,Wunderground v.1.15,2013-10-19 20:20:00,
2013-10-19 15:22:00,60.7,36.8,30.02,North,355,1.0,6.0,41,0.00,,,0.01,,Wunderground v.1.15,2013-10-19 20:22:00,
2013-10-19 15:26:00,61.0,37.7,30.02,WNW,284,1.0,6.0,42,0.00,,,0.01,,Wunderground v.1.15,2013-10-19 20:26:00,
2013-10-19 15:30:00,61.2,37.3,30.02,WNW,302,2.0,2.0,41,0.00,,,0.01,,Wunderground v.1.15,2013-10-19 20:30:00,
2013-10-19 15:32:00,61.3,38.0,30.01,WNW,303,2.0,2.0,42,0.00,,,0.01,,Wunderground v.1.15,2013-10-19 20:32:00,
2013-10-19 15:34:00,61.4,37.5,30.01,WSW,244,2.0,2.0,41,0.00,,,0.01,,Wunderground v.1.15,2013-10-19 20:34:00,
2013-10-19 15:36:00,61.6,37.7,30.01,WSW,250,2.0,2.0,41,0.00,,,0.01,,Wunderground v.1.15,2013-10-19 20:36:00,
2013-10-19 15:39:00,61.7,37.1,30.01,West,270,1.0,4.0,40,0.00,,,0.01,,Wunderground v.1.15,2013-10-19 20:39:00,
2013-10-19 15:40:00,61.6,37.0,30.01,NW,311,2.0,4.0,40,0.00,,,0.01,,Wunderground v.1.15,2013-10-19 20:40:00,
2013-10-19 15:44:00,61.6,37.0,30.01,WNW,296,2.0,5.0,40,0.00,,,0.01,,Wunderground v.1.15,2013-10-19 20:44:00,
2013-10-19 15:46:00,61.6,37.7,30.01,WNW,291,2.0,5.0,41,0.00,,,0.01,,Wunderground v.1.15,2013-10-19 20:46:00,
2013-10-19 15:52:00,61.9,38.5,30.01,NW,323,2.0,2.0,42,0.00,,,0.01,,Wunderground v.1.15,2013-10-19 20:52:00,
2013-10-19 15:54:00,61.8,38.4,30.01,NW,317,2.0,2.0,42,0.00,,,0.01,,Wunderground v.1.15,2013-10-19 20:54:00,
2013-10-19 15:56:00,61.8,39.1,30.01,NW,317,2.0,2.0,43,0.00,,,0.01,,Wunderground v.1.15,2013-10-19 20:56:00,
2013-10-19 16:00:00,61.8,37.8,30.01,NW,311,2.0,2.0,41,0.00,,,0.01,,Wunderground v.1.15,2013-10-19 21:00:00,
2013-10-19 16:06:00,61.8,37.8,30.00,West,278,2.0,7.0,41,0.00,,,0.01,,Wunderground v.1.15,2013-10-19 21:06:00,
2013-10-19 16:10:00,61.8,37.2,30.00,WNW,302,2.0,2.0,40,0.00,,,0.01,,Wunderground v.1.15,2013-10-19 21:10:00,
2013-10-19 16:16:00,61.8,36.6,30.00,NW,323,2.0,2.0,39,0.00,,,0.01,,Wunderground v.1.15,2013-10-19 21:16:00,
2013-10-19 16:20:00,61.9,37.9,30.00,WNW,286,2.0,2.0,41,0.00,,,0.01,,Wunderground v.1.15,2013-10-19 21:20:00,
2013-10-19 16:22:00,61.9,37.3,30.00,WNW,293,2.0,2.0,40,0.00,,,0.01,,Wunderground v.1.15,2013-10-19 21:22:00,
2013-10-19 16:26:00,62.0,38.6,30.00,WNW,283,1.0,2.0,42,0.00,,,0.01,,Wunderground v.1.15,2013-10-19 21:26:00,
2013-10-19 16:30:00,62.1,38.1,30.00,WSW,250,1.0,1.0,41,0.00,,,0.01,,Wunderground v.1.15,2013-10-19 21:30:00,
2013-10-19 16:32:00,62.2,38.2,30.00,WSW,249,0.0,1.0,41,0.00,,,0.01,,Wunderground v.1.15,2013-10-19 21:32:00,
2013-10-19 16:36:00,62.2,38.8,30.00,SW,234,0.0,1.0,42,0.00,,,0.01,,Wunderground v.1.15,2013-10-19 21:36:00,
2013-10-19 16:39:00,62.3,38.3,30.00,West,268,0.0,1.0,41,0.00,,,0.01,,Wunderground v.1.15,2013-10-19 21:39:00,
2013-10-19 16:40:00,62.3,37.7,30.00,West,279,0.0,5.0,40,0.00,,,0.01,,Wunderground v.1.15,2013-10-19 21:40:00,
2013-10-19 16:46:00,62.4,38.4,29.99,West,273,1.0,5.0,41,0.00,,,0.01,,Wunderground v.1.15,2013-10-19 21:46:00,
2013-10-19 16:50:00,62.5,38.5,29.99,WSW,240,1.0,2.0,41,0.00,,,0.01,,Wunderground v.1.15,2013-10-19 21:50:00,
2013-10-19 16:52:00,62.6,37.9,29.99,SW,223,1.0,3.0,40,0.00,,,0.01,,Wunderground v.1.15,2013-10-19 21:52:00,
2013-10-19 16:56:00,62.6,37.3,29.99,West,281,1.0,3.0,39,0.00,,,0.01,,Wunderground v.1.15,2013-10-19 21:56:00,
2013-10-19 16:59:00,62.6,37.9,29.99,West,275,1.0,3.0,40,0.00,,,0.01,,Wunderground v.1.15,2013-10-19 21:59:00,
2013-10-19 17:00:00,62.6,37.3,29.99,WNW,298,1.0,4.0,39,0.00,,,0.01,,Wunderground v.1.15,2013-10-19 22:00:00,
2013-10-19 17:02:00,62.6,37.9,29.99,WNW,296,1.0,4.0,40,0.00,,,0.01,,Wunderground v.1.15,2013-10-19 22:02:00,
2013-10-19 17:06:00,62.6,37.9,29.99,WNW,295,1.0,4.0,40,0.00,,,0.01,,Wunderground v.1.15,2013-10-19 22:06:00,
2013-10-19 17:09:00,62.7,38.6,29.99,SSE,149,1.0,4.0,41,0.00,,,0.01,,Wunderground v.1.15,2013-10-19 22:09:00,
2013-10-19 17:14:00,63.0,38.9,29.99,SSE,149,0.0,1.0,41,0.00,,,0.01,,Wunderground v.1.15,2013-10-19 22:14:00,
2013-10-19 17:16:00,63.1,38.4,29.98,SSE,149,0.0,1.0,40,0.00,,,0.01,,Wunderground v.1.15,2013-10-19 22:16:00,
2013-10-19 17:20:00,63.3,38.6,29.98,SSE,163,0.0,0.0,40,0.00,,,0.01,,Wunderground v.1.15,2013-10-19 22:20:00,
2013-10-19 17:26:00,63.6,38.2,29.98,WNW,286,0.0,0.0,39,0.00,,,0.01,,Wunderground v.1.15,2013-10-19 22:26:00,
2013-10-19 17:30:00,63.9,38.4,29.98,WNW,290,1.0,1.0,39,0.00,,,0.01,,Wunderground v.1.15,2013-10-19 22:30:00,
2013-10-19 17:32:00,64.0,38.5,29.98,WNW,290,1.0,1.0,39,0.00,,,0.01,,Wunderground v.1.15,2013-10-19 22:32:00,
2013-10-19 17:36:00,64.3,38.1,29.98,West,273,1.0,3.0,38,0.00,,,0.01,,Wunderground v.1.15,2013-10-19 22:36:00,
2013-10-19 17:38:00,64.4,38.2,29.98,West,272,1.0,3.0,38,0.00,,,0.01,,Wunderground v.1.15,2013-10-19 22:38:00,
2013-10-19 17:40:00,64.5,38.3,29.98,West,273,1.0,1.0,38,0.00,,,0.01,,Wunderground v.1.15,2013-10-19 22:40:00,
2013-10-19 17:46:00,64.5,39.0,29.98,South,177,0.0,1.0,39,0.00,,,0.01,,Wunderground v.1.15,2013-10-19 22:46:00,
2013-10-19 17:49:00,64.5,39.6,29.98,South,177,0.0,1.0,40,0.00,,,0.01,,Wunderground v.1.15,2013-10-19 22:49:00,
2013-10-19 17:50:00,64.5,39.6,29.98,South,176,0.0,0.0,40,0.00,,,0.01,,Wunderground v.1.15,2013-10-19 22:50:00,
2013-10-19 17:54:00,64.5,39.6,29.98,South,176,0.0,0.0,40,0.00,,,0.01,,Wunderground v.1.15,2013-10-19 22:54:00,
2013-10-19 17:56:00,64.4,39.5,29.98,South,177,0.0,0.0,40,0.00,,,0.01,,Wunderground v.1.15,2013-10-19 22:56:00,
2013-10-19 18:02:00,64.0,39.2,29.98,SSE,168,0.0,0.0,40,0.00,,,0.01,,Wunderground v.1.15,2013-10-19 23:02:00,
2013-10-19 18:06:00,63.7,39.5,29.98,SSE,168,0.0,0.0,41,0.00,,,0.01,,Wunderground v.1.15,2013-10-19 23:06:00,
2013-10-19 18:12:00,63.5,39.4,29.97,South,169,0.0,0.0,41,0.00,,,0.01,,Wunderground v.1.15,2013-10-19 23:12:00,
2013-10-19 18:14:00,63.3,39.8,29.97,SSE,168,0.0,0.0,42,0.00,,,0.01,,Wunderground v.1.15,2013-10-19 23:14:00,
2013-10-19 18:16:00,63.1,39.0,29.97,South,169,0.0,0.0,41,0.00,,,0.01,,Wunderground v.1.15,2013-10-19 23:16:00,
2013-10-19 18:22:00,62.2,38.8,29.97,South,169,0.0,0.0,42,0.00,,,0.01,,Wunderground v.1.15,2013-10-19 23:22:00,
2013-10-19 18:30:00,61.2,39.7,29.97,SSE,168,0.0,0.0,45,0.00,,,0.01,,Wunderground v.1.15,2013-10-19 23:30:00,
2013-10-19 18:32:00,60.9,39.4,29.97,SSE,168,0.0,0.0,45,0.00,,,0.01,,Wunderground v.1.15,2013-10-19 23:32:00,
2013-10-19 18:34:00,60.7,39.8,29.97,SSE,168,0.0,0.0,46,0.00,,,0.01,,Wunderground v.1.15,2013-10-19 23:34:00,
2013-10-19 18:36:00,60.4,39.5,29.97,South,169,0.0,0.0,46,0.00,,,0.01,,Wunderground v.1.15,2013-10-19 23:36:00,
2013-10-19 18:40:00,59.9,39.6,29.97,South,169,0.0,0.0,47,0.00,,,0.01,,Wunderground v.1.15,2013-10-19 23:40:00,
2013-10-19 18:42:00,59.7,40.0,29.97,South,169,0.0,0.0,48,0.00,,,0.01,,Wunderground v.1.15,2013-10-19 23:42:00,
2013-10-19 18:49:00,59.0,39.9,29.97,SSE,168,0.0,0.0,49,0.00,,,0.01,,Wunderground v.1.15,2013-10-19 23:49:00,
2013-10-19 18:50:00,59.0,40.4,29.97,South,169,0.0,0.0,50,0.00,,,0.01,,Wunderground v.1.15,2013-10-19 23:50:00,
2013-10-19 18:56:00,58.4,40.3,29.97,SSE,168,0.0,0.0,51,0.00,,,0.01,,Wunderground v.1.15,2013-10-19 23:56:00,
2013-10-19 18:59:00,58.1,40.1,29.97,South,169,0.0,0.0,51,0.00,,,0.01,,Wunderground v.1.15,2013-10-19 23:59:00,
2013-10-19 19:00:00,58.0,40.0,29.97,South,169,0.0,0.0,51,0.00,,,0.01,,Wunderground v.1.15,2013-10-20 00:00:00,
2013-10-19 19:04:00,57.7,40.2,29.97,South,169,0.0,0.0,52,0.00,,,0.01,,Wunderground v.1.15,2013-10-20 00:04:00,
2013-10-19 19:06:00,57.6,40.1,29.97,South,169,0.0,0.0,52,0.00,,,0.01,,Wunderground v.1.15,2013-10-20 00:06:00,
2013-10-19 19:09:00,57.4,39.9,29.97,South,169,0.0,0.0,52,0.00,,,0.01,,Wunderground v.1.15,2013-10-20 00:09:00,
2013-10-19 19:10:00,57.3,39.8,29.97,SSE,168,0.0,0.0,52,0.00,,,0.01,,Wunderground v.1.15,2013-10-20 00:10:00,
2013-10-19 19:12:00,57.2,39.7,29.97,SSE,168,0.0,0.0,52,0.00,,,0.01,,Wunderground v.1.15,2013-10-20 00:12:00,
2013-10-19 19:16:00,57.0,40.0,29.97,South,169,0.0,0.0,53,0.00,,,0.01,,Wunderground v.1.15,2013-10-20 00:16:00,
2013-10-19 19:22:00,56.8,39.8,29.97,SSE,168,0.0,0.0,53,0.00,,,0.01,,Wunderground v.1.15,2013-10-20 00:22:00,
2013-10-19 19:26:00,56.6,39.7,29.97,SSE,168,0.0,0.0,53,0.00,,,0.01,,Wunderground v.1.15,2013-10-20 00:26:00,
2013-10-19 19:30:00,56.4,39.5,29.97,South,169,0.0,0.0,53,0.00,,,0.01,,Wunderground v.1.15,2013-10-20 00:30:00,
2013-10-19 19:32:00,56.4,40.0,29.97,South,169,0.0,0.0,54,0.00,,,0.01,,Wunderground v.1.15,2013-10-20 00:32:00,
2013-10-19 19:34:00,56.3,39.9,29.97,South,169,0.0,0.0,54,0.00,,,0.01,,Wunderground v.1.15,2013-10-20 00:34:00,
2013-10-19 19:36:00,56.3,39.9,29.97,South,169,0.0,0.0,54,0.00,,,0.01,,Wunderground v.1.15,2013-10-20 00:36:00,
2013-10-19 19:40:00,56.2,40.2,29.97,SSE,168,0.0,0.0,55,0.00,,,0.01,,Wunderground v.1.15,2013-10-20 00:40:00,
2013-10-19 19:42:00,56.2,40.2,29.97,SSE,168,0.0,0.0,55,0.00,,,0.01,,Wunderground v.1.15,2013-10-20 00:42:00,
2013-10-19 19:44:00,56.1,40.1,29.97,SSE,168,0.0,0.0,55,0.00,,,0.01,,Wunderground v.1.15,2013-10-20 00:44:00,
2013-10-19 19:50:00,55.9,40.0,29.97,SSE,168,0.0,0.0,55,0.00,,,0.01,,Wunderground v.1.15,2013-10-20 00:50:00,
2013-10-19 19:52:00,55.9,40.0,29.97,SSE,168,0.0,0.0,55,0.00,,,0.01,,Wunderground v.1.15,2013-10-20 00:52:00,
2013-10-19 19:54:00,55.7,40.2,29.97,SSE,168,0.0,0.0,56,0.00,,,0.01,,Wunderground v.1.15,2013-10-20 00:54:00,
2013-10-19 20:00:00,55.5,40.0,29.97,SSE,168,0.0,0.0,56,0.00,,,0.01,,Wunderground v.1.15,2013-10-20 01:00:00,
2013-10-19 20:02:00,55.5,40.0,29.97,SSE,168,0.0,0.0,56,0.00,,,0.01,,Wunderground v.1.15,2013-10-20 01:02:00,
2013-10-19 20:06:00,55.4,40.0,29.97,SSE,168,0.0,0.0,56,0.00,,,0.01,,Wunderground v.1.15,2013-10-20 01:06:00,
2013-10-19 20:12:00,55.2,39.8,29.96,SSE,166,0.0,0.0,56,0.00,,,0.01,,Wunderground v.1.15,2013-10-20 01:12:00,
2013-10-19 20:16:00,55.2,39.8,29.96,South,170,0.0,2.0,56,0.00,,,0.01,,Wunderground v.1.15,2013-10-20 01:16:00,
2013-10-19 20:20:00,55.1,39.7,29.96,South,169,0.0,0.0,56,0.00,,,0.01,,Wunderground v.1.15,2013-10-20 01:20:00,
2013-10-19 20:22:00,55.1,39.7,29.96,SSE,168,0.0,0.0,56,0.00,,,0.01,,Wunderground v.1.15,2013-10-20 01:22:00,
2013-10-19 20:26:00,55.0,39.6,29.96,SSE,166,0.0,1.0,56,0.00,,,0.01,,Wunderground v.1.15,2013-10-20 01:26:00,
2013-10-19 20:32:00,54.9,39.9,29.96,SSE,167,1.0,1.0,57,0.00,,,0.01,,Wunderground v.1.15,2013-10-20 01:32:00,
2013-10-19 20:36:00,54.8,39.8,29.96,SSE,167,1.0,1.0,57,0.00,,,0.01,,Wunderground v.1.15,2013-10-20 01:36:00,
2013-10-19 20:38:00,54.6,40.1,29.96,SSE,167,0.0,1.0,58,0.00,,,0.01,,Wunderground v.1.15,2013-10-20 01:38:00,
2013-10-19 20:40:00,54.5,40.0,29.96,SSE,167,0.0,0.0,58,0.00,,,0.01,,Wunderground v.1.15,2013-10-20 01:40:00,
2013-10-19 20:42:00,54.4,39.9,29.96,SSE,167,0.0,0.0,58,0.00,,,0.01,,Wunderground v.1.15,2013-10-20 01:42:00,
2013-10-19 20:51:00,54.0,40.0,29.96,SSE,156,0.0,3.0,59,0.00,,,0.01,,Wunderground v.1.15,2013-10-20 01:51:00,
2013-10-19 20:52:00,54.0,40.0,29.96,SSE,156,1.0,3.0,59,0.00,,,0.01,,Wunderground v.1.15,2013-10-20 01:52:00,
2013-10-19 20:56:00,54.0,39.5,29.96,SSE,156,1.0,3.0,58,0.00,,,0.01,,Wunderground v.1.15,2013-10-20 01:56:00,
2013-10-19 21:00:00,53.9,39.9,29.96,SSE,157,1.0,2.0,59,0.00,,,0.01,,Wunderground v.1.15,2013-10-20 02:00:00,
2013-10-19 21:04:00,53.8,39.8,29.96,SSE,156,0.0,2.0,59,0.00,,,0.01,,Wunderground v.1.15,2013-10-20 02:04:00,
2013-10-19 21:06:00,53.7,39.7,29.96,SSE,157,0.0,2.0,59,0.00,,,0.01,,Wunderground v.1.15,2013-10-20 02:06:00,
2013-10-19 21:12:00,53.6,39.2,29.96,SSE,158,0.0,1.0,58,0.00,,,0.01,,Wunderground v.1.15,2013-10-20 02:12:00,
2013-10-19 21:14:00,53.6,39.2,29.96,SSE,154,0.0,1.0,58,0.00,,,0.01,,Wunderground v.1.15,2013-10-20 02:14:00,
2013-10-19 21:16:00,53.6,39.6,29.96,SSE,154,0.0,1.0,59,0.00,,,0.01,,Wunderground v.1.15,2013-10-20 02:16:00,
2013-10-19 21:22:00,53.5,39.5,29.96,SSE,148,0.0,0.0,59,0.00,,,0.01,,Wunderground v.1.15,2013-10-20 02:22:00,
2013-10-19 21:24:00,53.4,39.4,29.96,SSE,148,0.0,0.0,59,0.00,,,0.01,,Wunderground v.1.15,2013-10-20 02:24:00,
2013-10-19 21:28:00,53.3,39.3,29.96,SSE,149,0.0,0.0,59,0.00,,,0.01,,Wunderground v.1.15,2013-10-20 02:28:00,
2013-10-19 21:30:00,53.2,39.2,29.96,SSE,149,0.0,0.0,59,0.00,,,0.01,,Wunderground v.1.15,2013-10-20 02:30:00,
2013-10-19 21:32:00,53.1,39.1,29.96,SSE,148,0.0,3.0,59,0.00,,,0.01,,Wunderground v.1.15,2013-10-20 02:32:00,
2013-10-19 21:34:00,53.1,39.1,29.96,SSE,149,0.0,3.0,59,0.00,,,0.01,,Wunderground v.1.15,2013-10-20 02:34:00,
2013-10-19 21:39:00,52.9,39.4,29.96,SSE,149,0.0,3.0,60,0.00,,,0.01,,Wunderground v.1.15,2013-10-20 02:39:00,
2013-10-19 21:40:00,52.9,39.4,29.96,SSE,149,0.0,3.0,60,0.00,,,0.01,,Wunderground v.1.15,2013-10-20 02:40:00,
2013-10-19 21:42:00,52.8,39.3,29.96,SSE,149,0.0,0.0,60,0.00,,,0.01,,Wunderground v.1.15,2013-10-20 02:42:00,
2013-10-19 21:44:00,52.8,39.3,29.96,SSE,149,0.0,0.0,60,0.00,,,0.01,,Wunderground v.1.15,2013-10-20 02:44:00,
2013-10-19 21:50:00,52.6,39.5,29.96,SSE,149,0.0,0.0,61,0.00,,,0.01,,Wunderground v.1.15,2013-10-20 02:50:00,
2013-10-19 21:52:00,52.5,39.4,29.96,SSE,149,0.0,0.0,61,0.00,,,0.01,,Wunderground v.1.15,2013-10-20 02:52:00,
2013-10-19 21:56:00,52.4,39.3,29.96,SSE,149,0.0,0.0,61,0.00,,,0.01,,Wunderground v.1.15,2013-10-20 02:56:00,
2013-10-19 21:59:00,52.3,39.2,29.96,SSE,149,0.0,0.0,61,0.00,,,0.01,,Wunderground v.1.15,2013-10-20 02:59:00,
2013-10-19 22:00:00,52.2,39.6,29.96,SSE,149,0.0,0.0,62,0.00,,,0.01,,Wunderground v.1.15,2013-10-20 03:00:00,
2013-10-19 22:02:00,52.2,39.6,29.96,SSE,149,0.0,0.0,62,0.00,,,0.01,,Wunderground v.1.15,2013-10-20 03:02:00,
2013-10-19 22:06:00,52.1,39.5,29.96,SSE,149,0.0,0.0,62,0.00,,,0.01,,Wunderground v.1.15,2013-10-20 03:06:00,
2013-10-19 22:10:00,51.9,39.3,29.97,SSE,149,0.0,0.0,62,0.00,,,0.01,,Wunderground v.1.15,2013-10-20 03:10:00,
2013-10-19 22:12:00,51.8,39.6,29.97,SSE,149,0.0,0.0,63,0.00,,,0.01,,Wunderground v.1.15,2013-10-20 03:12:00,
2013-10-19 22:16:00,51.6,39.4,29.97,SSE,149,0.0,0.0,63,0.00,,,0.01,,Wunderground v.1.15,2013-10-20 03:16:00,
2013-10-19 22:18:00,51.5,39.3,29.97,SSE,149,0.0,0.0,63,0.00,,,0.01,,Wunderground v.1.15,2013-10-20 03:18:00,
2013-10-19 22:20:00,51.4,39.6,29.97,SSE,149,0.0,0.0,64,0.00,,,0.01,,Wunderground v.1.15,2013-10-20 03:20:00,
2013-10-19 22:22:00,51.3,39.5,29.97,SSE,149,0.0,0.0,64,0.00,,,0.01,,Wunderground v.1.15,2013-10-20 03:22:00,
2013-10-19 22:26:00,51.2,39.8,29.97,SSE,149,0.0,0.0,65,0.00,,,0.01,,Wunderground v.1.15,2013-10-20 03:26:00,
2013-10-19 22:30:00,51.1,39.7,29.97,SSE,149,0.0,0.0,65,0.00,,,0.01,,Wunderground v.1.15,2013-10-20 03:30:00,
2013-10-19 22:32:00,51.0,39.6,29.97,SSE,149,0.0,0.0,65,0.00,,,0.01,,Wunderground v.1.15,2013-10-20 03:32:00,
2013-10-19 22:34:00,51.0,39.6,29.97,SSE,149,0.0,0.0,65,0.00,,,0.01,,Wunderground v.1.15,2013-10-20 03:34:00,
2013-10-19 22:36:00,50.9,39.5,29.97,SSE,149,0.0,0.0,65,0.00,,,0.01,,Wunderground v.1.15,2013-10-20 03:36:00,
2013-10-19 22:40:00,50.8,39.8,29.97,SSE,149,0.0,0.0,66,0.00,,,0.01,,Wunderground v.1.15,2013-10-20 03:40:00,
2013-10-19 22:42:00,50.8,39.8,29.97,SSE,149,0.0,0.0,66,0.00,,,0.01,,Wunderground v.1.15,2013-10-20 03:42:00,
2013-10-19 22:46:00,50.6,39.7,29.97,SSE,150,0.0,0.0,66,0.00,,,0.01,,Wunderground v.1.15,2013-10-20 03:46:00,
2013-10-19 22:50:00,50.5,39.6,29.97,SSE,150,0.0,0.0,66,0.00,,,0.01,,Wunderground v.1.15,2013-10-20 03:50:00,
2013-10-19 22:52:00,50.5,39.6,29.97,SSE,149,0.0,0.0,66,0.00,,,0.01,,Wunderground v.1.15,2013-10-20 03:52:00,
2013-10-19 22:56:00,50.4,39.5,29.97,SSE,149,0.0,0.0,66,0.00,,,0.01,,Wunderground v.1.15,2013-10-20 03:56:00,
2013-10-19 23:00:00,50.3,39.8,29.97,SSE,150,0.0,0.0,67,0.00,,,0.01,,Wunderground v.1.15,2013-10-20 04:00:00,
2013-10-19 23:02:00,50.3,39.8,29.97,SSE,153,0.0,4.0,67,0.00,,,0.01,,Wunderground v.1.15,2013-10-20 04:02:00,
2013-10-19 23:06:00,50.3,39.8,29.97,SSE,153,1.0,4.0,67,0.00,,,0.01,,Wunderground v.1.15,2013-10-20 04:06:00,
2013-10-19 23:10:00,50.3,39.8,29.97,SSE,165,1.0,1.0,67,0.00,,,0.01,,Wunderground v.1.15,2013-10-20 04:10:00,
2013-10-19 23:12:00,50.3,39.8,29.97,SSE,165,1.0,1.0,67,0.00,,,0.01,,Wunderground v.1.15,2013-10-20 04:12:00,
2013-10-19 23:16:00,50.3,39.8,29.96,SSE,165,1.0,1.0,67,0.00,,,0.01,,Wunderground v.1.15,2013-10-20 04:16:00,
2013-10-19 23:20:00,50.2,39.7,29.96,SSE,165,0.0,0.0,67,0.00,,,0.01,,Wunderground v.1.15,2013-10-20 04:20:00,
2013-10-19 23:22:00,50.2,39.7,29.96,South,169,0.0,3.0,67,0.00,,,0.01,,Wunderground v.1.15,2013-10-20 04:22:00,
2013-10-19 23:24:00,50.2,39.7,29.97,SSE,167,0.0,3.0,67,0.00,,,0.01,,Wunderground v.1.15,2013-10-20 04:24:00,
2013-10-19 23:26:00,50.1,39.6,29.96,SSE,167,0.0,3.0,67,0.00,,,0.01,,Wunderground v.1.15,2013-10-20 04:26:00,
2013-10-19 23:32:00,50.1,39.6,29.96,SSE,163,0.0,1.0,67,0.00,,,0.01,,Wunderground v.1.15,2013-10-20 04:32:00,
2013-10-19 23:36:00,50.1,39.6,29.96,SSE,163,0.0,1.0,67,0.00,,,0.01,,Wunderground v.1.15,2013-10-20 04:36:00,
2013-10-19 23:40:00,50.0,39.5,29.96,SSE,163,0.0,0.0,67,0.00,,,0.01,,Wunderground v.1.15,2013-10-20 04:40:00,
2013-10-19 23:42:00,50.0,39.8,29.96,SSE,162,0.0,1.0,68,0.00,,,0.01,,Wunderground v.1.15,2013-10-20 04:42:00,
2013-10-19 23:46:00,49.9,39.8,29.96,SSE,161,0.0,1.0,68,0.00,,,0.01,,Wunderground v.1.15,2013-10-20 04:46:00,
2013-10-19 23:49:00,49.8,39.7,29.96,SSE,161,0.0,1.0,68,0.00,,,0.01,,Wunderground v.1.15,2013-10-20 04:49:00,
2013-10-19 23:52:00,49.7,39.6,29.96,SSE,162,0.0,1.0,68,0.00,,,0.01,,Wunderground v.1.15,2013-10-20 04:52:00,
2013-10-19 23:56:00,49.6,39.5,29.96,SSE,161,0.0,1.0,68,0.00,,,0.01,,Wunderground v.1.15,2013-10-20 04:56:00,
2013-10-19 23:59:00,49.5,39.7,29.96,SSE,161,0.0,1.0,69,0.00,,,0.01,,Wunderground v.1.15,2013-10-20 04:59:00,